createdAt,value
2023-11-09T00:00:40.699Z,999.32
2023-11-09T00:01:40.720Z,999.27
2023-11-09T00:02:40.772Z,999.30
2023-11-09T00:03:40.763Z,999.23
2023-11-09T00:04:40.887Z,999.22
2023-11-09T00:05:40.845Z,999.28
2023-11-09T00:06:40.841Z,999.30
2023-11-09T00:07:40.867Z,999.27
2023-11-09T00:08:40.876Z,999.23
2023-11-09T00:09:40.896Z,999.24
2023-11-09T00:10:40.920Z,999.26
2023-11-09T00:11:40.940Z,999.23
2023-11-09T00:12:40.959Z,999.22
2023-11-09T00:13:40.984Z,999.22
2023-11-09T00:14:41.010Z,999.16
2023-11-09T00:15:41.060Z,999.20
2023-11-09T00:16:41.048Z,999.15
2023-11-09T00:17:41.087Z,999.12
2023-11-09T00:18:41.092Z,999.14
2023-11-09T00:19:41.231Z,999.10
2023-11-09T00:20:41.142Z,999.12
2023-11-09T00:21:41.165Z,999.12
2023-11-09T00:22:41.180Z,999.09
2023-11-09T00:23:41.266Z,999.07
2023-11-09T00:24:41.262Z,999.03
2023-11-09T00:25:41.247Z,998.99
2023-11-09T00:26:41.272Z,999.01
2023-11-09T00:27:41.289Z,998.97
2023-11-09T00:28:41.314Z,998.93
2023-11-09T00:29:41.333Z,998.94
2023-11-09T00:30:41.374Z,998.97
2023-11-09T00:31:41.388Z,998.93
2023-11-09T00:32:41.419Z,998.87
2023-11-09T00:33:41.435Z,998.92
2023-11-09T00:34:41.477Z,998.88
2023-11-09T00:35:41.503Z,998.89
2023-11-09T00:36:41.489Z,998.87
2023-11-09T00:37:41.575Z,998.85
2023-11-09T00:38:41.533Z,998.85
2023-11-09T00:39:41.560Z,998.79
2023-11-09T00:40:41.598Z,998.79
2023-11-09T00:41:41.606Z,998.79
2023-11-09T00:42:41.616Z,998.74
2023-11-09T00:43:41.649Z,998.72
2023-11-09T00:44:41.671Z,998.70
2023-11-09T00:45:41.683Z,998.67
2023-11-09T00:46:41.717Z,998.65
2023-11-09T00:47:41.779Z,998.65
2023-11-09T00:48:41.774Z,998.64
2023-11-09T00:49:41.779Z,998.61
2023-11-09T00:50:41.800Z,998.61
2023-11-09T00:51:41.822Z,998.58
2023-11-09T00:52:41.880Z,998.59
2023-11-09T00:53:41.865Z,998.58
2023-11-09T00:54:41.882Z,998.55
2023-11-09T00:55:41.908Z,998.53
2023-11-09T00:56:41.927Z,998.50
2023-11-09T00:57:41.950Z,998.48
2023-11-09T00:58:41.972Z,998.49
2023-11-09T00:59:42.000Z,998.51
2023-11-09T01:00:42.023Z,998.50
2023-11-09T01:01:42.037Z,998.50
2023-11-09T01:02:42.130Z,998.44
2023-11-09T01:03:42.108Z,998.50
2023-11-09T01:04:42.162Z,998.45
2023-11-09T01:05:42.142Z,998.47
2023-11-09T01:06:42.144Z,998.48
2023-11-09T01:07:42.169Z,998.43
2023-11-09T01:08:42.190Z,998.48
2023-11-09T01:09:42.250Z,998.47
2023-11-09T01:10:42.233Z,998.44
2023-11-09T01:11:42.256Z,998.46
2023-11-09T01:12:42.275Z,998.41
2023-11-09T01:13:42.299Z,998.44
2023-11-09T01:14:42.319Z,998.33
2023-11-09T01:15:42.345Z,998.37
2023-11-09T01:16:42.369Z,998.32
2023-11-09T01:17:42.415Z,998.34
2023-11-09T01:18:42.443Z,998.28
2023-11-09T01:19:42.501Z,998.37
2023-11-09T01:20:42.484Z,998.35
2023-11-09T01:21:42.472Z,998.36
2023-11-09T01:22:42.499Z,998.30
2023-11-09T01:23:42.519Z,998.25
2023-11-09T01:24:42.569Z,998.25
2023-11-09T01:25:42.572Z,998.22
2023-11-09T01:26:42.585Z,998.25
2023-11-09T01:27:42.608Z,998.20
2023-11-09T01:28:42.629Z,998.17
2023-11-09T01:29:42.717Z,998.17
2023-11-09T01:30:42.674Z,998.19
2023-11-09T01:31:42.694Z,998.16
2023-11-09T01:32:42.735Z,998.14
2023-11-09T01:33:42.771Z,998.13
2023-11-09T01:34:42.773Z,998.10
2023-11-09T01:35:50.560Z,998.06
2023-11-09T01:37:46.836Z,998.09
2023-11-09T01:38:46.814Z,998.08
2023-11-09T01:40:50.860Z,998.04
2023-11-09T01:41:50.890Z,998.01
2023-11-09T01:43:54.887Z,998.01
2023-11-09T01:44:54.887Z,997.96
2023-11-09T01:46:58.939Z,997.89
2023-11-09T01:47:58.933Z,997.92
2023-11-09T01:49:52.629Z,997.82
2023-11-09T01:50:52.554Z,997.79
2023-11-09T01:51:52.583Z,997.79
2023-11-09T01:52:52.596Z,997.76
2023-11-09T01:53:52.619Z,997.76
2023-11-09T01:54:52.654Z,997.71
2023-11-09T01:55:52.661Z,997.70
2023-11-09T01:56:52.683Z,997.66
2023-11-09T01:57:52.753Z,997.65
2023-11-09T01:58:52.726Z,997.64
2023-11-09T01:59:52.751Z,997.61
2023-11-09T02:00:52.813Z,997.60
2023-11-09T02:01:52.793Z,997.59
2023-11-09T02:02:52.837Z,997.55
2023-11-09T02:03:52.881Z,997.52
2023-11-09T02:04:52.945Z,997.51
2023-11-09T02:05:52.900Z,997.52
2023-11-09T02:06:52.919Z,997.46
2023-11-09T02:07:52.924Z,997.47
2023-11-09T02:08:52.946Z,997.47
2023-11-09T02:09:52.983Z,997.45
2023-11-09T02:10:52.989Z,997.46
2023-11-09T02:11:53.021Z,997.45
2023-11-09T02:12:53.081Z,997.43
2023-11-09T02:13:53.054Z,997.42
2023-11-09T02:14:53.079Z,997.46
2023-11-09T02:15:53.215Z,997.42
2023-11-09T02:16:53.146Z,997.44
2023-11-09T02:17:53.196Z,997.42
2023-11-09T02:18:53.224Z,997.42
2023-11-09T02:19:53.186Z,997.43
2023-11-09T02:20:53.219Z,997.36
2023-11-09T02:21:53.308Z,997.40
2023-11-09T02:22:53.261Z,997.37
2023-11-09T02:23:53.276Z,997.33
2023-11-09T02:24:53.323Z,997.30
2023-11-09T02:25:53.338Z,997.32
2023-11-09T02:26:53.345Z,997.27
2023-11-09T02:27:53.392Z,997.28
2023-11-09T02:28:53.387Z,997.22
2023-11-09T02:29:53.400Z,997.24
2023-11-09T02:30:53.449Z,997.22
2023-11-09T02:31:53.448Z,997.16
2023-11-09T02:32:53.531Z,997.17
2023-11-09T02:33:53.592Z,997.16
2023-11-09T02:34:53.511Z,997.12
2023-11-09T02:35:53.590Z,997.09
2023-11-09T02:36:53.597Z,997.09
2023-11-09T02:37:53.577Z,997.04
2023-11-09T02:38:53.599Z,997.06
2023-11-09T02:39:53.642Z,997.11
2023-11-09T02:40:53.643Z,997.07
2023-11-09T02:41:53.688Z,997.11
2023-11-09T02:42:53.721Z,997.05
2023-11-09T02:43:53.717Z,997.06
2023-11-09T02:44:53.734Z,997.06
2023-11-09T02:45:53.820Z,997.03
2023-11-09T02:46:53.773Z,997.02
2023-11-09T02:47:53.846Z,996.99
2023-11-09T02:48:53.884Z,996.99
2023-11-09T02:49:53.839Z,996.97
2023-11-09T02:50:53.864Z,996.98
2023-11-09T02:51:53.902Z,996.91
2023-11-09T02:52:53.914Z,996.94
2023-11-09T02:53:53.926Z,996.90
2023-11-09T02:54:53.966Z,996.88
2023-11-09T02:55:53.971Z,996.90
2023-11-09T02:56:53.999Z,996.84
2023-11-09T02:57:54.076Z,996.87
2023-11-09T02:58:54.067Z,996.79
2023-11-09T02:59:54.072Z,996.83
2023-11-09T03:00:54.183Z,996.82
2023-11-09T03:01:54.108Z,996.80
2023-11-09T03:02:54.154Z,996.77
2023-11-09T03:03:54.300Z,996.76
2023-11-09T03:04:54.218Z,996.79
2023-11-09T03:05:54.223Z,996.72
2023-11-09T03:06:54.265Z,996.72
2023-11-09T03:07:54.238Z,996.73
2023-11-09T03:08:54.256Z,996.69
2023-11-09T03:09:54.337Z,996.66
2023-11-09T03:10:54.302Z,996.61
2023-11-09T03:11:54.322Z,996.65
2023-11-09T03:12:54.363Z,996.57
2023-11-09T03:13:54.378Z,996.59
2023-11-09T03:14:54.389Z,996.67
2023-11-09T03:15:54.477Z,996.56
2023-11-09T03:16:54.431Z,996.62
2023-11-09T03:17:54.513Z,996.57
2023-11-09T03:18:54.519Z,996.55
2023-11-09T03:19:54.495Z,996.57
2023-11-09T03:20:54.518Z,996.55
2023-11-09T03:21:54.676Z,996.55
2023-11-09T03:22:54.568Z,996.51
2023-11-09T03:23:54.592Z,996.51
2023-11-09T03:24:54.709Z,996.51
2023-11-09T03:25:54.632Z,996.45
2023-11-09T03:26:54.657Z,996.46
2023-11-09T03:27:54.686Z,996.44
2023-11-09T03:28:54.694Z,996.42
2023-11-09T03:29:54.717Z,996.44
2023-11-09T03:30:54.849Z,996.42
2023-11-09T03:31:54.769Z,996.41
2023-11-09T03:32:54.797Z,996.39
2023-11-09T03:33:54.847Z,996.36
2023-11-09T03:34:54.853Z,996.34
2023-11-09T03:35:54.846Z,996.37
2023-11-09T03:36:54.879Z,996.32
2023-11-09T03:37:54.896Z,996.31
2023-11-09T03:38:54.914Z,996.26
2023-11-09T03:39:54.950Z,996.29
2023-11-09T03:40:54.957Z,996.31
2023-11-09T03:41:55.024Z,996.25
2023-11-09T03:42:55.005Z,996.25
2023-11-09T03:43:55.020Z,996.22
2023-11-09T03:44:55.064Z,996.20
2023-11-09T03:45:55.073Z,996.21
2023-11-09T03:46:55.697Z,996.19
2023-11-09T03:47:55.207Z,996.13
2023-11-09T03:48:55.131Z,996.14
2023-11-09T03:49:55.153Z,996.15
2023-11-09T03:50:55.172Z,996.10
2023-11-09T03:51:55.197Z,996.08
2023-11-09T03:52:55.227Z,996.09
2023-11-09T03:53:55.239Z,996.06
2023-11-09T03:54:55.265Z,996.00
2023-11-09T03:55:55.290Z,996.00
2023-11-09T03:56:55.310Z,996.01
2023-11-09T03:57:55.329Z,995.99
2023-11-09T03:58:55.354Z,996.03
2023-11-09T03:59:55.387Z,996.03
2023-11-09T04:00:55.390Z,996.10
2023-11-09T04:01:55.413Z,996.07
2023-11-09T04:02:55.477Z,996.05
2023-11-09T04:03:55.535Z,996.00
2023-11-09T04:04:55.506Z,995.92
2023-11-09T04:05:55.529Z,995.92
2023-11-09T04:06:55.537Z,995.90
2023-11-09T04:07:55.549Z,995.90
2023-11-09T04:08:55.572Z,995.87
2023-11-09T04:09:55.599Z,995.85
2023-11-09T04:10:55.688Z,995.85
2023-11-09T04:11:55.632Z,995.86
2023-11-09T04:12:55.654Z,995.84
2023-11-09T04:13:55.676Z,995.80
2023-11-09T04:14:55.705Z,995.84
2023-11-09T04:15:57.699Z,995.84
2023-11-09T04:16:55.740Z,995.85
2023-11-09T04:17:55.792Z,995.87
2023-11-09T04:18:55.815Z,995.83
2023-11-09T04:19:55.823Z,995.87
2023-11-09T04:20:55.828Z,995.86
2023-11-09T04:21:55.854Z,995.85
2023-11-09T04:22:55.884Z,995.87
2023-11-09T04:23:55.899Z,995.83
2023-11-09T04:24:55.918Z,995.80
2023-11-09T04:25:55.951Z,995.80
2023-11-09T04:26:55.962Z,995.82
2023-11-09T04:27:55.981Z,995.79
2023-11-09T04:28:56.005Z,995.84
2023-11-09T04:29:56.030Z,995.82
2023-11-09T04:30:56.049Z,995.77
2023-11-09T04:31:56.070Z,995.80
2023-11-09T04:32:56.129Z,995.84
2023-11-09T04:33:56.178Z,995.81
2023-11-09T04:34:56.159Z,995.76
2023-11-09T04:35:56.183Z,995.80
2023-11-09T04:36:56.183Z,995.80
2023-11-09T04:37:56.201Z,995.76
2023-11-09T04:38:56.224Z,995.73
2023-11-09T04:39:56.251Z,995.79
2023-11-09T04:40:56.270Z,995.76
2023-11-09T04:41:56.308Z,995.79
2023-11-09T04:42:56.311Z,995.81
2023-11-09T04:43:56.633Z,995.75
2023-11-09T04:44:56.358Z,995.77
2023-11-09T04:45:56.377Z,995.75
2023-11-09T04:46:56.400Z,995.78
2023-11-09T04:47:56.576Z,995.77
2023-11-09T04:48:56.510Z,995.77
2023-11-09T04:49:56.485Z,995.76
2023-11-09T04:50:56.493Z,995.75
2023-11-09T04:51:56.507Z,995.73
2023-11-09T04:52:56.532Z,995.78
2023-11-09T04:53:56.553Z,995.75
2023-11-09T04:54:56.576Z,995.73
2023-11-09T04:55:56.593Z,995.71
2023-11-09T04:56:56.620Z,995.74
2023-11-09T04:57:56.643Z,995.73
2023-11-09T04:58:56.662Z,995.68
2023-11-09T04:59:56.681Z,995.73
2023-11-09T05:00:56.703Z,995.68
2023-11-09T05:01:56.732Z,995.68
2023-11-09T05:02:56.832Z,995.65
2023-11-09T05:03:56.770Z,995.66
2023-11-09T05:04:56.797Z,995.62
2023-11-09T05:05:56.875Z,995.63
2023-11-09T05:06:56.940Z,995.60
2023-11-09T05:07:56.907Z,995.60
2023-11-09T05:08:56.881Z,995.61
2023-11-09T05:09:56.910Z,995.57
2023-11-09T05:10:56.924Z,995.54
2023-11-09T05:11:56.948Z,995.55
2023-11-09T05:12:56.969Z,995.58
2023-11-09T05:13:56.999Z,995.56
2023-11-09T05:14:57.016Z,995.52
2023-11-09T05:15:57.041Z,995.53
2023-11-09T05:16:57.107Z,995.48
2023-11-09T05:17:57.097Z,995.48
2023-11-09T05:18:57.101Z,995.49
2023-11-09T05:19:57.133Z,995.49
2023-11-09T05:20:57.143Z,995.47
2023-11-09T05:21:57.165Z,995.56
2023-11-09T05:22:57.188Z,995.51
2023-11-09T05:23:57.237Z,995.55
2023-11-09T05:24:57.233Z,995.56
2023-11-09T05:25:57.256Z,995.58
2023-11-09T05:26:57.277Z,995.53
2023-11-09T05:27:57.304Z,995.55
2023-11-09T05:28:57.322Z,995.49
2023-11-09T05:29:57.346Z,995.48
2023-11-09T05:30:57.457Z,995.43
2023-11-09T05:31:57.390Z,995.44
2023-11-09T05:32:57.431Z,995.43
2023-11-09T05:33:57.489Z,995.49
2023-11-09T05:34:57.480Z,995.47
2023-11-09T05:35:57.472Z,995.44
2023-11-09T05:36:57.499Z,995.40
2023-11-09T05:37:57.524Z,995.38
2023-11-09T05:38:57.554Z,995.38
2023-11-09T05:39:57.573Z,995.36
2023-11-09T05:40:57.597Z,995.39
2023-11-09T05:41:57.621Z,995.44
2023-11-09T05:42:57.629Z,995.40
2023-11-09T05:43:57.650Z,995.44
2023-11-09T05:44:57.671Z,995.39
2023-11-09T05:45:57.708Z,995.44
2023-11-09T05:46:57.720Z,995.39
2023-11-09T05:47:57.831Z,995.45
2023-11-09T05:48:57.798Z,995.50
2023-11-09T05:49:57.785Z,995.47
2023-11-09T05:50:57.818Z,995.52
2023-11-09T05:51:57.845Z,995.52
2023-11-09T05:52:57.854Z,995.53
2023-11-09T05:53:57.872Z,995.55
2023-11-09T05:54:57.887Z,995.57
2023-11-09T05:55:57.918Z,995.52
2023-11-09T05:56:57.940Z,995.58
2023-11-09T05:57:57.985Z,995.55
2023-11-09T05:58:58.100Z,995.53
2023-11-09T05:59:57.998Z,995.49
2023-11-09T06:00:58.024Z,995.53
2023-11-09T06:02:00.205Z,995.56
2023-11-09T06:02:58.184Z,995.53
2023-11-09T06:03:58.087Z,995.54
2023-11-09T06:04:58.191Z,995.54
2023-11-09T06:05:58.136Z,995.58
2023-11-09T06:06:58.157Z,995.56
2023-11-09T06:07:58.174Z,995.57
2023-11-09T06:08:58.207Z,995.56
2023-11-09T06:09:58.219Z,995.58
2023-11-09T06:10:58.243Z,995.57
2023-11-09T06:11:58.264Z,995.56
2023-11-09T06:12:58.289Z,995.52
2023-11-09T06:13:58.307Z,995.50
2023-11-09T06:14:58.325Z,995.51
2023-11-09T06:15:58.347Z,995.51
2023-11-09T06:16:58.379Z,995.54
2023-11-09T06:17:58.490Z,995.59
2023-11-09T06:18:58.417Z,995.56
2023-11-09T06:19:58.443Z,995.57
2023-11-09T06:20:58.468Z,995.55
2023-11-09T06:21:58.492Z,995.58
2023-11-09T06:22:58.527Z,995.57
2023-11-09T06:23:58.527Z,995.55
2023-11-09T06:24:58.551Z,995.54
2023-11-09T06:25:58.579Z,995.48
2023-11-09T06:26:58.592Z,995.48
2023-11-09T06:27:58.624Z,995.54
2023-11-09T06:28:58.664Z,995.54
2023-11-09T06:29:58.668Z,995.53
2023-11-09T06:30:58.685Z,995.56
2023-11-09T06:31:58.759Z,995.58
2023-11-09T06:32:58.750Z,995.55
2023-11-09T06:33:58.810Z,995.53
2023-11-09T06:34:58.790Z,995.49
2023-11-09T06:35:58.822Z,995.51
2023-11-09T06:36:58.813Z,995.52
2023-11-09T06:37:58.836Z,995.49
2023-11-09T06:38:58.860Z,995.50
2023-11-09T06:39:58.877Z,995.51
2023-11-09T06:40:58.922Z,995.56
2023-11-09T06:41:58.948Z,995.48
2023-11-09T06:42:58.947Z,995.46
2023-11-09T06:43:58.969Z,995.51
2023-11-09T06:44:58.999Z,995.56
2023-11-09T06:45:59.014Z,995.56
2023-11-09T06:46:59.052Z,995.66
2023-11-09T06:47:59.089Z,995.60
2023-11-09T06:48:59.131Z,995.53
2023-11-09T06:49:59.100Z,995.57
2023-11-09T06:50:59.184Z,995.54
2023-11-09T06:51:59.146Z,995.56
2023-11-09T06:52:59.185Z,995.54
2023-11-09T06:53:59.234Z,995.52
2023-11-09T06:54:59.215Z,995.53
2023-11-09T06:55:59.266Z,995.57
2023-11-09T06:56:59.302Z,995.55
2023-11-09T06:57:59.325Z,995.54
2023-11-09T06:58:59.317Z,995.59
2023-11-09T06:59:59.329Z,995.62
2023-11-09T07:00:59.364Z,995.61
2023-11-09T07:01:59.369Z,995.67
2023-11-09T07:02:59.398Z,995.65
2023-11-09T07:03:59.511Z,995.67
2023-11-09T07:04:59.564Z,995.61
2023-11-09T07:05:59.496Z,995.67
2023-11-09T07:06:59.511Z,995.68
2023-11-09T07:07:59.498Z,995.66
2023-11-09T07:08:59.525Z,995.67
2023-11-09T07:09:59.543Z,995.65
2023-11-09T07:10:59.609Z,995.69
2023-11-09T07:11:59.584Z,995.72
2023-11-09T07:12:59.614Z,995.69
2023-11-09T07:13:59.631Z,995.65
2023-11-09T07:14:59.663Z,995.66
2023-11-09T07:15:59.679Z,995.66
2023-11-09T07:16:59.705Z,995.70
2023-11-09T07:17:59.744Z,995.72
2023-11-09T07:18:59.822Z,995.74
2023-11-09T07:19:59.765Z,995.74
2023-11-09T07:21:07.201Z,995.72
2023-11-09T07:21:59.811Z,995.70
2023-11-09T07:22:59.830Z,995.71
2023-11-09T07:23:59.852Z,995.70
2023-11-09T07:25:08.264Z,995.68
2023-11-09T07:25:59.926Z,995.71
2023-11-09T07:26:59.922Z,995.71
2023-11-09T07:27:59.943Z,995.72
2023-11-09T07:29:00.016Z,995.75
2023-11-09T07:30:00.044Z,995.76
2023-11-09T07:31:00.010Z,995.80
2023-11-09T07:32:00.044Z,995.83
2023-11-09T07:33:00.119Z,995.81
2023-11-09T07:34:00.086Z,995.82
2023-11-09T07:35:00.167Z,995.87
2023-11-09T07:36:00.135Z,995.86
2023-11-09T07:37:00.139Z,995.90
2023-11-09T07:38:00.160Z,995.82
2023-11-09T07:39:01.909Z,995.82
2023-11-09T07:40:00.219Z,995.84
2023-11-09T07:41:00.228Z,995.81
2023-11-09T07:42:00.254Z,995.82
2023-11-09T07:43:00.317Z,995.82
2023-11-09T07:44:00.294Z,995.81
2023-11-09T07:45:00.339Z,995.80
2023-11-09T07:46:00.346Z,995.83
2023-11-09T07:47:00.364Z,995.87
2023-11-09T07:48:00.476Z,995.91
2023-11-09T07:49:00.523Z,995.96
2023-11-09T07:50:00.428Z,995.92
2023-11-09T07:51:00.451Z,995.88
2023-11-09T07:52:00.500Z,995.88
2023-11-09T07:53:00.497Z,995.80
2023-11-09T07:54:00.516Z,995.82
2023-11-09T07:55:00.569Z,995.82
2023-11-09T07:56:03.231Z,995.86
2023-11-09T07:57:00.602Z,995.92
2023-11-09T07:58:00.605Z,995.92
2023-11-09T07:59:00.631Z,995.90
2023-11-09T08:00:05.154Z,995.93
2023-11-09T08:01:00.683Z,995.93
2023-11-09T08:02:02.734Z,995.93
2023-11-09T08:03:00.807Z,995.93
2023-11-09T08:04:00.761Z,995.89
2023-11-09T08:05:00.841Z,995.90
2023-11-09T08:06:00.915Z,995.88
2023-11-09T08:07:00.804Z,995.90
2023-11-09T08:08:00.825Z,995.89
2023-11-09T08:09:00.977Z,995.93
2023-11-09T08:10:00.880Z,995.92
2023-11-09T08:11:00.906Z,995.96
2023-11-09T08:12:00.920Z,995.91
2023-11-09T08:13:00.985Z,995.95
2023-11-09T08:14:00.967Z,995.93
2023-11-09T08:15:00.998Z,995.94
2023-11-09T08:16:01.227Z,996.00
2023-11-09T08:17:01.030Z,996.01
2023-11-09T08:18:01.071Z,996.01
2023-11-09T08:19:01.115Z,996.03
2023-11-09T08:20:01.213Z,995.98
2023-11-09T08:21:01.154Z,996.01
2023-11-09T08:22:01.144Z,996.01
2023-11-09T08:23:01.175Z,996.03
2023-11-09T08:24:01.183Z,996.08
2023-11-09T08:25:01.217Z,996.09
2023-11-09T08:26:01.283Z,996.09
2023-11-09T08:27:01.252Z,996.08
2023-11-09T08:28:01.296Z,996.05
2023-11-09T08:29:01.293Z,996.04
2023-11-09T08:30:01.320Z,995.98
2023-11-09T08:31:01.341Z,996.02
2023-11-09T08:32:01.364Z,996.03
2023-11-09T08:33:01.444Z,996.01
2023-11-09T08:34:01.455Z,996.02
2023-11-09T08:35:01.430Z,996.02
2023-11-09T08:36:01.465Z,996.03
2023-11-09T08:37:01.475Z,996.05
2023-11-09T08:38:01.514Z,996.11
2023-11-09T08:39:01.519Z,996.05
2023-11-09T08:40:01.541Z,996.13
2023-11-09T08:41:01.563Z,996.15
2023-11-09T08:42:01.596Z,996.20
2023-11-09T08:43:01.612Z,996.20
2023-11-09T08:44:01.629Z,996.16
2023-11-09T08:45:01.662Z,996.15
2023-11-09T08:46:01.682Z,996.07
2023-11-09T08:47:01.699Z,996.15
2023-11-09T08:48:01.822Z,996.14
2023-11-09T08:49:01.742Z,996.16
2023-11-09T08:50:01.778Z,996.21
2023-11-09T08:51:01.808Z,996.18
2023-11-09T08:52:01.811Z,996.16
2023-11-09T08:53:01.831Z,996.15
2023-11-09T08:54:01.860Z,996.14
2023-11-09T08:55:01.875Z,996.14
2023-11-09T08:56:01.896Z,996.15
2023-11-09T08:57:01.923Z,996.17
2023-11-09T08:58:01.942Z,996.20
2023-11-09T08:59:01.983Z,996.24
2023-11-09T09:00:02.086Z,996.23
2023-11-09T09:01:02.007Z,996.29
2023-11-09T09:02:02.049Z,996.20
2023-11-09T09:03:02.103Z,996.17
2023-11-09T09:04:02.117Z,996.15
2023-11-09T09:05:02.144Z,996.11
2023-11-09T09:06:02.178Z,996.15
2023-11-09T09:07:02.142Z,996.19
2023-11-09T09:08:03.038Z,996.18
2023-11-09T09:09:02.349Z,996.17
2023-11-09T09:10:02.208Z,996.12
2023-11-09T09:11:05.104Z,996.18
2023-11-09T09:12:02.255Z,996.19
2023-11-09T09:13:02.609Z,996.18
2023-11-09T09:14:02.305Z,996.17
2023-11-09T09:15:02.341Z,996.23
2023-11-09T09:16:02.365Z,996.18
2023-11-09T09:17:02.378Z,996.21
2023-11-09T09:18:02.426Z,996.22
2023-11-09T09:19:02.457Z,996.19
2023-11-09T09:20:02.561Z,996.20
2023-11-09T09:21:02.479Z,996.19
2023-11-09T09:22:02.546Z,996.18
2023-11-09T09:23:02.497Z,996.15
2023-11-09T09:24:02.568Z,996.13
2023-11-09T09:25:02.543Z,996.17
2023-11-09T09:26:14.803Z,996.15
2023-11-09T09:27:02.596Z,996.12
2023-11-09T09:28:02.827Z,996.13
2023-11-09T09:29:02.635Z,996.08
2023-11-09T09:30:02.670Z,996.16
2023-11-09T09:31:02.675Z,996.14
2023-11-09T09:32:02.707Z,996.10
2023-11-09T09:33:02.888Z,996.13
2023-11-09T09:34:02.745Z,996.19
2023-11-09T09:35:02.767Z,996.12
2023-11-09T09:36:02.791Z,996.14
2023-11-09T09:37:02.812Z,996.14
2023-11-09T09:38:05.134Z,996.19
2023-11-09T09:39:02.863Z,996.17
2023-11-09T09:40:02.891Z,996.16
2023-11-09T09:41:02.925Z,996.14
2023-11-09T09:42:02.923Z,996.13
2023-11-09T09:43:02.947Z,996.09
2023-11-09T09:44:03.215Z,996.10
2023-11-09T09:45:02.990Z,996.08
2023-11-09T09:46:03.031Z,996.06
2023-11-09T09:47:03.061Z,996.09
2023-11-09T09:48:03.289Z,996.06
2023-11-09T09:49:03.078Z,996.07
2023-11-09T09:50:03.108Z,996.11
2023-11-09T09:51:03.123Z,996.14
2023-11-09T09:52:03.157Z,996.17
2023-11-09T09:53:03.186Z,996.11
2023-11-09T09:54:03.204Z,996.09
2023-11-09T09:55:03.214Z,996.11
2023-11-09T09:56:03.241Z,996.11
2023-11-09T09:57:03.265Z,996.15
2023-11-09T09:58:03.288Z,996.11
2023-11-09T09:59:03.310Z,996.11
2023-11-09T10:00:05.738Z,996.10
2023-11-09T10:01:03.370Z,996.07
2023-11-09T10:02:03.377Z,996.12
2023-11-09T10:03:03.422Z,996.14
2023-11-09T10:04:03.439Z,996.15
2023-11-09T10:05:03.516Z,996.10
2023-11-09T10:06:03.471Z,996.16
2023-11-09T10:07:03.492Z,996.17
2023-11-09T10:08:03.545Z,996.18
2023-11-09T10:09:03.538Z,996.16
2023-11-09T10:10:03.561Z,996.15
2023-11-09T10:11:03.586Z,996.19
2023-11-09T10:12:03.616Z,996.12
2023-11-09T10:13:03.634Z,996.19
2023-11-09T10:14:03.665Z,996.19
2023-11-09T10:15:03.681Z,996.17
2023-11-09T10:16:03.702Z,996.22
2023-11-09T10:17:03.760Z,996.22
2023-11-09T10:18:03.752Z,996.19
2023-11-09T10:19:03.844Z,996.20
2023-11-09T10:20:03.792Z,996.16
2023-11-09T10:21:03.828Z,996.25
2023-11-09T10:22:03.868Z,996.26
2023-11-09T10:23:03.869Z,996.25
2023-11-09T10:24:04.013Z,996.30
2023-11-09T10:25:03.911Z,996.35
2023-11-09T10:26:04.012Z,996.32
2023-11-09T10:27:03.959Z,996.28
2023-11-09T10:28:03.985Z,996.24
2023-11-09T10:29:04.002Z,996.28
2023-11-09T10:30:04.030Z,996.28
2023-11-09T10:31:04.049Z,996.25
2023-11-09T10:32:04.072Z,996.27
2023-11-09T10:33:04.171Z,996.27
2023-11-09T10:34:04.166Z,996.26
2023-11-09T10:35:04.190Z,996.27
2023-11-09T10:36:04.168Z,996.27
2023-11-09T10:37:04.187Z,996.21
2023-11-09T10:38:04.207Z,996.23
2023-11-09T10:39:04.237Z,996.24
2023-11-09T10:40:04.264Z,996.20
2023-11-09T10:41:16.126Z,996.20
2023-11-09T10:42:04.335Z,996.21
2023-11-09T10:43:04.328Z,996.21
2023-11-09T10:44:06.020Z,996.20
2023-11-09T10:45:04.375Z,996.23
2023-11-09T10:46:04.398Z,996.23
2023-11-09T10:47:08.821Z,996.22
2023-11-09T10:48:04.498Z,996.20
2023-11-09T10:49:04.468Z,996.22
2023-11-09T10:50:04.929Z,996.26
2023-11-09T10:51:04.536Z,996.28
2023-11-09T10:52:04.537Z,996.26
2023-11-09T10:53:04.572Z,996.26
2023-11-09T10:54:04.598Z,996.27
2023-11-09T10:55:04.610Z,996.26
2023-11-09T10:56:05.085Z,996.19
2023-11-09T10:57:04.665Z,996.18
2023-11-09T10:58:04.678Z,996.18
2023-11-09T10:59:04.705Z,996.19
2023-11-09T11:00:04.729Z,996.20
2023-11-09T11:01:04.751Z,996.19
2023-11-09T11:02:05.079Z,996.18
2023-11-09T11:03:04.834Z,996.11
2023-11-09T11:04:04.822Z,996.10
2023-11-09T11:05:04.839Z,996.12
2023-11-09T11:06:04.926Z,996.11
2023-11-09T11:07:04.889Z,996.12
2023-11-09T11:08:04.925Z,996.07
2023-11-09T11:09:04.937Z,996.09
2023-11-09T11:10:04.963Z,996.13
2023-11-09T11:11:04.999Z,996.11
2023-11-09T11:12:05.050Z,996.06
2023-11-09T11:13:05.033Z,996.04
2023-11-09T11:14:05.061Z,996.03
2023-11-09T11:15:05.087Z,996.07
2023-11-09T11:16:05.140Z,996.10
2023-11-09T11:17:05.129Z,996.10
2023-11-09T11:18:07.019Z,996.11
2023-11-09T11:19:05.237Z,996.06
2023-11-09T11:20:05.266Z,996.01
2023-11-09T11:21:05.221Z,996.01
2023-11-09T11:22:05.249Z,995.98
2023-11-09T11:23:05.270Z,995.99
2023-11-09T11:24:05.293Z,995.99
2023-11-09T11:25:05.321Z,995.97
2023-11-09T11:26:06.199Z,995.95
2023-11-09T11:27:08.963Z,995.96
2023-11-09T11:28:05.388Z,995.98
2023-11-09T11:29:05.413Z,995.94
2023-11-09T11:30:05.438Z,995.92
2023-11-09T11:31:05.465Z,995.93
2023-11-09T11:32:13.776Z,995.92
2023-11-09T11:33:05.554Z,995.95
2023-11-09T11:34:05.577Z,995.91
2023-11-09T11:35:05.581Z,995.91
2023-11-09T11:36:05.605Z,995.92
2023-11-09T11:37:05.604Z,995.90
2023-11-09T11:38:05.638Z,995.85
2023-11-09T11:39:05.752Z,995.92
2023-11-09T11:40:05.674Z,995.94
2023-11-09T11:41:05.706Z,995.89
2023-11-09T11:42:05.721Z,995.91
2023-11-09T11:43:06.560Z,995.94
2023-11-09T11:44:05.778Z,995.94
2023-11-09T11:45:05.790Z,995.95
2023-11-09T11:46:05.824Z,995.94
2023-11-09T11:47:05.850Z,995.93
2023-11-09T11:48:05.878Z,995.88
2023-11-09T11:49:05.916Z,995.91
2023-11-09T11:50:06.112Z,995.87
2023-11-09T11:51:05.937Z,995.90
2023-11-09T11:52:05.956Z,995.92
2023-11-09T11:53:05.985Z,995.91
2023-11-09T11:54:06.034Z,995.98
2023-11-09T11:55:06.147Z,995.92
2023-11-09T11:56:06.063Z,995.84
2023-11-09T11:57:06.075Z,995.83
2023-11-09T11:58:06.098Z,995.82
2023-11-09T11:59:06.135Z,995.79
2023-11-09T12:00:06.147Z,995.78
2023-11-09T12:01:06.171Z,995.82
2023-11-09T12:02:06.226Z,995.83
2023-11-09T12:03:06.315Z,995.81
2023-11-09T12:04:07.101Z,995.81
2023-11-09T12:05:06.299Z,995.80
2023-11-09T12:06:14.318Z,995.81
2023-11-09T12:07:06.317Z,995.81
2023-11-09T12:08:06.344Z,995.81
2023-11-09T12:09:06.365Z,995.78
2023-11-09T12:10:06.401Z,995.79
2023-11-09T12:11:06.410Z,995.81
2023-11-09T12:12:06.436Z,995.80
2023-11-09T12:13:06.466Z,995.82
2023-11-09T12:14:06.513Z,995.78
2023-11-09T12:15:06.506Z,995.77
2023-11-09T12:16:06.578Z,995.77
2023-11-09T12:17:06.557Z,995.82
2023-11-09T12:18:06.672Z,995.78
2023-11-09T12:19:06.650Z,995.81
2023-11-09T12:20:06.628Z,995.82
2023-11-09T12:21:06.655Z,995.82
2023-11-09T12:22:06.692Z,995.85
2023-11-09T12:23:06.703Z,995.85
2023-11-09T12:24:06.731Z,995.83
2023-11-09T12:25:06.750Z,995.84
2023-11-09T12:26:06.775Z,995.86
2023-11-09T12:27:06.958Z,995.88
2023-11-09T12:28:06.824Z,995.84
2023-11-09T12:29:06.847Z,995.79
2023-11-09T12:30:06.871Z,995.77
2023-11-09T12:31:06.895Z,995.74
2023-11-09T12:32:06.919Z,995.70
2023-11-09T12:33:06.961Z,995.68
2023-11-09T12:34:07.013Z,995.70